Terminal Aerodrome Forecast
Issued by NWS Omaha/Valley, NE

Home | Current Version | Previous Version | Text Only | Print | Product List | Glossary Off
Versions: 1 2 3 4 5 6 7 8 9 10 11 12 13 14 15 16 17 18 19 20 21 22 23 24 25 26 27 28 29 30 31 32 33 34 35 36 37 38 39 40 41 42 43 44

411
FTUS43 KOAX 231136
TAFOFK
TAF
KOFK 231136Z 2312/2412 00000KT P6SM OVC009
     FM231600 VRB03KT P6SM OVC020
     FM232000 14010KT P6SM BKN120
     FM240300 13012KT P6SM BKN035
     FM241000 12010KT P6SM OVC015=

USA.gov is the U.S. government's official web portal to all federal, state and local government web resources and services.